Pagina principale
METAR-TAF:

METAR-TAF

Aeroporti :

Tongatapu, Tonga

latitudine: 21-14S, longitudine: 175-09W, altezza: 38 m

Osservazione

Il bollettino è stato emesso 57 minuti fa, alle 00:00 UTC
Vento 8 kt da sud/sud-ovest
Temperature 25°C
Umidità 54%
Pressione 1016 hPa
Visibilità 10 km o più
Poco nuvoloso ad un'altezza di 2000 ft

METAR: NFTF 160000Z 20008KT 9999 FEW020 25/15 Q1016 RMK DRY AIR 54%

Ora: 13:57 (00:57 UTC)

Previsione

Il bollettino è stato emesso 1 ora e 55 minuti fa, alle 23:02 UTC
Previsione valida dal 16 alle 00 UTC al 16 alle 24 UTC
Vento 7 kt da sud/sud-est
Visibilità 10 km o più
Nubi sparse ad un'altezza di 1700 ft
Nuvoloso ad un'altezza di 10000 ft

TAF: NFTF 152302Z 1600/1624 16007KT 9999 SCT017 BKN100

Osservazioni e previsioni meteorologiche di più di 4000 aeroporti (messaggi METAR e TAF).

Le stazioni disponibili sono rappresentate dai dischi gialli e rossi sulla carta.

Puntare il mouse per vedere il nome della stazione.

Clicca sopra per visualizzare le osservazioni e previsioni meteorologiche.

Per cambiare la mappa : fare clic sui pulsanti verdi con una croce nera per ingrandire, il pulsante verde con un trattino per diminuire, o sulla freccia verde per le mappe adiacenti.


METAR-TAF: